Time;durP1;ratioP1;P1;durP2;ratioP2;P2;SDS_P1;SDS_P2;PMS_P1;PMS_P2;Temp;Humidity;BMP_temperature;BMP_pressure;BME280_temperature;BME280_humidity;BME280_pressure;Samples;Min_cycle;Max_cycle;Signal;HPM_P1;HPM_P2
2023/04/24 00:02:23;;;;;;;2.60;1.40;;;;;;;11.52;100.00;97810.91;5067440;28;20204;-78
2023/04/24 00:04:52;;;;;;;5.30;1.57;;;;;;;11.40;100.00;97809.38;4984711;28;20254;-78
2023/04/24 00:07:21;;;;;;;1.70;1.37;;;;;;;11.54;100.00;97798.34;4991059;28;20674;-78
2023/04/24 00:09:49;;;;;;;2.03;1.37;;;;;;;11.57;100.00;97795.41;4989794;28;20199;-78
2023/04/24 00:12:17;;;;;;;2.23;1.40;;;;;;;11.46;100.00;97807.00;4990950;28;20199;-78
2023/04/24 00:14:47;;;;;;;2.20;1.53;;;;;;;11.47;100.00;97808.66;4985899;28;20221;-78
2023/04/24 00:17:15;;;;;;;2.73;1.60;;;;;;;11.40;100.00;97804.91;4990941;28;20215;-78
2023/04/24 00:19:44;;;;;;;2.73;1.47;;;;;;;11.54;100.00;97805.47;4988453;28;20187;-77
2023/04/24 00:22:13;;;;;;;3.67;1.30;;;;;;;11.52;100.00;97797.66;5001366;28;20302;-78
2023/04/24 00:24:41;;;;;;;2.97;1.70;;;;;;;11.42;100.00;97792.34;5068357;28;20200;-77
2023/04/24 00:27:09;;;;;;;4.90;1.60;;;;;;;11.42;100.00;97787.03;5072659;28;20257;-78
2023/04/24 00:29:38;;;;;;;2.50;1.43;;;;;;;11.38;100.00;97784.78;5070877;28;20200;-78
2023/04/24 00:32:08;;;;;;;3.93;2.00;;;;;;;11.35;100.00;97787.72;5067807;28;20207;-78
2023/04/24 00:34:36;;;;;;;3.90;1.63;;;;;;;11.29;100.00;97799.72;5064659;28;20667;-78
2023/04/24 00:37:05;;;;;;;3.27;1.67;;;;;;;11.26;100.00;97792.03;5073262;28;20254;-77
2023/04/24 00:39:35;;;;;;;2.77;1.57;;;;;;;11.14;100.00;97791.31;5068407;28;20199;-78
2023/04/24 00:42:06;;;;;;;2.80;1.93;;;;;;;11.17;100.00;97795.50;5073799;28;20188;-78
2023/04/24 00:44:34;;;;;;;3.03;1.67;;;;;;;11.14;100.00;97788.66;5071845;28;20269;-77
2023/04/24 00:47:03;;;;;;;1.97;1.67;;;;;;;11.09;100.00;97803.28;5073206;28;20188;-77
2023/04/24 00:49:32;;;;;;;2.00;1.50;;;;;;;11.17;100.00;97784.88;5075802;28;20204;-78
2023/04/24 00:52:00;;;;;;;3.27;1.90;;;;;;;11.12;100.00;97781.81;5075802;28;20253;-78
2023/04/24 00:54:29;;;;;;;7.83;1.80;;;;;;;11.16;100.00;97786.69;5071752;28;20275;-78
2023/04/24 00:56:57;;;;;;;2.10;1.60;;;;;;;11.16;100.00;97791.16;5072576;28;20200;-78
2023/04/24 00:59:26;;;;;;;2.73;2.00;;;;;;;11.26;100.00;97788.53;5075576;28;20258;-77
2023/04/24 01:01:54;;;;;;;1.67;1.50;;;;;;;11.28;100.00;97782.13;5075657;28;20251;-78
2023/04/24 01:04:23;;;;;;;2.57;1.57;;;;;;;11.22;100.00;97779.19;5075457;28;20236;-78
2023/04/24 01:06:53;;;;;;;4.20;1.47;;;;;;;11.32;100.00;97783.53;5071139;28;20219;-78
2023/04/24 01:09:24;;;;;;;4.70;1.80;;;;;;;11.36;100.00;97778.78;5068707;28;20671;-77
2023/04/24 01:11:52;;;;;;;2.73;1.50;;;;;;;11.28;100.00;97779.47;5071719;28;20246;-78
2023/04/24 01:14:21;;;;;;;2.67;1.30;;;;;;;11.34;100.00;97767.50;5067150;28;20189;-78
2023/04/24 01:16:49;;;;;;;2.17;1.40;;;;;;;11.37;100.00;97757.44;5068671;28;20208;-78
2023/04/24 01:19:19;;;;;;;2.17;1.50;;;;;;;11.37;100.00;97761.91;5072706;28;20216;-78
2023/04/24 01:21:51;;;;;;;2.47;1.53;;;;;;;11.33;100.00;97756.06;5072789;28;20199;-78
2023/04/24 01:24:21;;;;;;;2.00;1.40;;;;;;;11.35;100.00;97764.69;5071095;28;20200;-78
2023/04/24 01:26:49;;;;;;;2.53;1.40;;;;;;;11.33;100.00;97750.75;5069740;28;20259;-78
2023/04/24 01:29:18;;;;;;;3.00;1.37;;;;;;;11.45;100.00;97756.75;5075216;28;20201;-78
2023/04/24 01:31:46;;;;;;;3.87;1.40;;;;;;;11.36;100.00;97758.41;5072441;28;20185;-78
2023/04/24 01:34:15;;;;;;;2.77;1.30;;;;;;;11.47;100.00;97763.59;5075052;28;20200;-78
2023/04/24 01:36:46;;;;;;;1.90;1.40;;;;;;;11.52;100.00;97754.41;5067734;28;20207;-78
2023/04/24 01:39:16;;;;;;;1.40;1.20;;;;;;;11.40;100.00;97764.31;5073114;28;20216;-78
2023/04/24 01:41:46;;;;;;;3.10;1.47;;;;;;;11.41;100.00;97765.97;5072365;28;20192;-77
2023/04/24 01:44:15;;;;;;;1.63;1.30;;;;;;;11.44;100.00;97760.38;5075257;28;20203;-78
2023/04/24 01:46:43;;;;;;;1.73;1.20;;;;;;;11.36;100.00;97757.59;5074839;28;20200;-78
2023/04/24 01:49:12;;;;;;;1.77;1.20;;;;;;;11.42;100.00;97755.22;5071880;28;20250;-78
2023/04/24 01:51:40;;;;;;;3.03;1.47;;;;;;;11.43;100.00;97756.91;5074883;28;20193;-78
2023/04/24 01:54:08;;;;;;;2.93;1.40;;;;;;;11.44;100.00;97755.09;5070485;28;20254;-78
2023/04/24 01:56:41;;;;;;;5.80;1.97;;;;;;;11.43;100.00;97748.13;5074847;28;20196;-78
2023/04/24 01:59:12;;;;;;;1.80;1.70;;;;;;;11.53;100.00;97748.97;5071587;28;20683;-78
2023/04/24 02:01:40;;;;;;;2.47;1.70;;;;;;;11.47;100.00;97752.16;5069206;28;20204;-78
2023/04/24 02:04:09;;;;;;;3.40;1.83;;;;;;;11.59;100.00;97760.84;5071443;28;20228;-78
2023/04/24 02:06:37;;;;;;;2.97;1.80;;;;;;;11.48;100.00;97767.06;5069011;28;20249;-78
2023/04/24 02:09:06;;;;;;;2.67;1.70;;;;;;;11.57;100.00;97770.72;5073632;28;20212;-78
2023/04/24 02:11:34;;;;;;;2.53;1.60;;;;;;;11.41;100.00;97765.97;5069651;28;20361;-78
2023/04/24 02:14:02;;;;;;;4.07;1.77;;;;;;;11.45;100.00;97775.31;5074436;28;20253;-78
2023/04/24 02:16:33;;;;;;;2.13;1.50;;;;;;;11.57;100.00;97768.91;5070227;28;20732;-78
2023/04/24 02:19:02;;;;;;;3.63;1.93;;;;;;;11.54;100.00;97761.22;5074695;28;20226;-78
2023/04/24 02:21:30;;;;;;;1.73;1.53;;;;;;;11.38;100.00;97759.13;5065976;28;20200;-77
2023/04/24 02:24:00;;;;;;;1.73;1.60;;;;;;;11.52;100.00;97755.25;5070072;28;20200;-78
2023/04/24 02:26:28;;;;;;;3.27;2.07;;;;;;;11.44;100.00;97752.44;5071531;28;20196;-78
2023/04/24 02:28:56;;;;;;;4.33;1.97;;;;;;;11.44;100.00;97752.44;5071358;28;20207;-78
2023/04/24 02:31:24;;;;;;;1.83;1.70;;;;;;;11.32;100.00;97756.19;5065408;28;20196;-78
2023/04/24 02:33:54;;;;;;;4.00;2.17;;;;;;;11.25;100.00;97763.00;5061946;28;20632;-78
2023/04/24 02:36:22;;;;;;;4.50;2.07;;;;;;;11.11;100.00;97764.25;5064006;28;20211;-78
2023/04/24 02:38:50;;;;;;;5.07;2.60;;;;;;;10.91;100.00;97781.91;5063489;28;20220;-78
2023/04/24 02:41:19;;;;;;;3.83;2.40;;;;;;;11.02;100.00;97792.38;5069876;28;20188;-78
2023/04/24 02:43:47;;;;;;;6.83;3.70;;;;;;;10.84;100.00;97792.19;5066987;28;20421;-78
2023/04/24 02:46:15;;;;;;;4.23;3.70;;;;;;;10.78;100.00;97794.50;5082522;28;20193;-78
2023/04/24 02:48:44;;;;;;;4.10;3.70;;;;;;;10.64;100.00;97798.38;5078688;28;20197;-78
2023/04/24 02:51:13;;;;;;;7.37;4.30;;;;;;;10.72;100.00;97798.56;5073602;28;20196;-78
2023/04/24 02:53:41;;;;;;;4.80;4.30;;;;;;;10.71;100.00;97814.56;5066885;28;20204;-78
2023/04/24 02:56:12;;;;;;;5.20;4.70;;;;;;;10.63;100.00;97809.94;5066572;28;20208;-78
2023/04/24 02:58:40;;;;;;;5.50;5.00;;;;;;;10.71;100.00;97810.13;5066918;28;20220;-78
2023/04/24 03:01:09;;;;;;;7.10;5.83;;;;;;;10.53;100.00;97804.59;5073462;28;20245;-78
2023/04/24 03:03:38;;;;;;;8.33;5.80;;;;;;;10.57;100.00;97799.88;5067243;28;20204;-77
2023/04/24 03:06:07;;;;;;;8.53;6.00;;;;;;;10.52;100.00;97804.72;5067099;28;20287;-78
2023/04/24 03:08:38;;;;;;;7.30;5.53;;;;;;;10.52;100.00;97805.56;5063451;28;20189;-78
2023/04/24 03:11:06;;;;;;;8.93;5.80;;;;;;;10.62;100.00;97802.13;5070414;28;20197;-78
2023/04/24 03:13:34;;;;;;;6.40;5.50;;;;;;;10.55;100.00;97793.88;5067986;28;20200;-78
2023/04/24 03:16:03;;;;;;;7.30;5.50;;;;;;;10.43;100.00;97797.56;5073400;28;20193;-78
2023/04/24 03:18:31;;;;;;;6.43;5.33;;;;;;;10.41;100.00;97805.63;5065682;28;20196;-78
2023/04/24 03:20:59;;;;;;;7.00;5.03;;;;;;;10.30;100.00;97801.22;5070219;28;20647;-79
2023/04/24 03:23:27;;;;;;;6.07;5.47;;;;;;;10.17;100.00;97811.16;5069026;28;20197;-78
2023/04/24 03:25:57;;;;;;;7.57;5.47;;;;;;;10.20;100.00;97805.59;5073042;28;20222;-78
2023/04/24 03:28:26;;;;;;;5.90;5.30;;;;;;;10.19;100.00;97814.50;5070181;28;20192;-78
2023/04/24 03:30:54;;;;;;;6.43;5.83;;;;;;;10.16;100.00;97817.41;5067766;28;20608;-78
2023/04/24 03:33:22;;;;;;;5.70;5.20;;;;;;;10.21;100.00;97824.94;5067382;28;20192;-78
2023/04/24 03:35:50;;;;;;;7.97;5.70;;;;;;;10.23;100.00;97817.75;5072932;28;20245;-78
2023/04/24 03:38:18;;;;;;;6.63;4.90;;;;;;;10.35;100.00;97816.75;5013172;28;20192;-78
2023/04/24 03:40:47;;;;;;;7.80;4.30;;;;;;;10.30;100.00;97811.81;5065367;28;20212;-78
2023/04/24 03:43:17;;;;;;;4.53;3.97;;;;;;;10.31;100.00;97821.44;5067386;28;20204;-78
2023/04/24 03:45:46;;;;;;;4.00;3.50;;;;;;;10.20;100.00;97818.00;5067278;28;20207;-78
2023/04/24 03:48:15;;;;;;;4.13;3.50;;;;;;;10.12;100.00;97825.72;5069923;28;20227;-78
2023/04/24 03:50:44;;;;;;;7.40;3.53;;;;;;;10.15;100.00;97830.78;5069814;28;20310;-78
2023/04/24 03:53:13;;;;;;;4.73;3.93;;;;;;;10.10;100.00;97832.94;5071522;28;20655;-78
2023/04/24 03:55:41;;;;;;;4.50;3.50;;;;;;;10.11;100.00;97838.13;5070112;28;20189;-78
2023/04/24 03:58:09;;;;;;;5.63;3.63;;;;;;;10.17;100.00;97839.41;5070059;28;20193;-78
2023/04/24 04:00:40;;;;;;;3.40;3.10;;;;;;;10.04;100.00;97843.09;5067906;28;20269;-78
2023/04/24 04:03:08;;;;;;;2.80;2.60;;;;;;;10.10;100.00;97846.19;5069558;28;20192;-78
2023/04/24 04:05:36;;;;;;;3.10;2.20;;;;;;;10.18;100.00;97841.09;5072653;28;20644;-78
2023/04/24 04:08:04;;;;;;;3.93;1.90;;;;;;;10.17;100.00;97842.06;5071488;28;20196;-78
2023/04/24 04:10:33;;;;;;;3.17;1.70;;;;;;;10.21;100.00;97833.72;5068403;28;20204;-78
2023/04/24 04:13:01;;;;;;;1.80;1.70;;;;;;;10.18;100.00;97822.56;5064804;28;20200;-78
2023/04/24 04:15:29;;;;;;;2.40;1.60;;;;;;;10.12;100.00;97831.00;5067154;28;20200;-78
2023/04/24 04:18:01;;;;;;;4.50;1.80;;;;;;;10.09;100.00;97832.13;5065887;28;20196;-78
2023/04/24 04:20:30;;;;;;;3.00;1.80;;;;;;;10.11;100.00;97827.53;5063602;28;20220;-78
2023/04/24 04:22:58;;;;;;;2.57;1.87;;;;;;;10.13;100.00;97827.41;5068443;28;20261;-78
2023/04/24 04:25:26;;;;;;;1.90;1.70;;;;;;;10.10;100.00;97832.94;5072480;28;20212;-78
2023/04/24 04:27:54;;;;;;;3.37;1.97;;;;;;;10.05;100.00;97833.34;5068803;28;20203;-78
2023/04/24 04:30:23;;;;;;;3.00;1.90;;;;;;;10.11;100.00;97842.56;5068732;28;20200;-78
2023/04/24 04:32:51;;;;;;;1.97;1.70;;;;;;;9.99;100.00;97837.34;5069571;28;20196;-78
2023/04/24 04:35:21;;;;;;;2.27;1.90;;;;;;;9.92;100.00;97849.38;5069825;28;20205;-77
2023/04/24 04:37:51;;;;;;;1.97;1.80;;;;;;;9.82;100.00;97844.97;5066641;28;20188;-78
2023/04/24 04:40:19;;;;;;;1.97;1.77;;;;;;;9.78;100.00;97848.84;5072452;28;20220;-78
2023/04/24 04:42:47;;;;;;;3.50;1.90;;;;;;;9.70;100.00;97841.53;5072231;28;20246;-77
2023/04/24 04:45:17;;;;;;;3.27;2.00;;;;;;;9.66;100.00;97848.88;5067926;28;20271;-77
2023/04/24 04:47:45;;;;;;;2.27;1.90;;;;;;;9.66;100.00;97848.03;5064256;28;20192;-77
2023/04/24 04:50:13;;;;;;;2.30;1.73;;;;;;;9.61;100.00;97851.06;5067013;28;20260;-77
2023/04/24 04:52:43;;;;;;;3.33;2.03;;;;;;;9.57;100.00;97851.44;5065188;28;20205;-79
2023/04/24 04:55:13;;;;;;;2.23;2.03;;;;;;;9.50;100.00;97832.59;5072288;28;20266;-77
2023/04/24 04:57:41;;;;;;;2.90;2.00;;;;;;;9.44;100.00;97857.69;5072121;28;20195;-77
2023/04/24 05:00:11;;;;;;;2.67;1.93;;;;;;;9.43;100.00;97841.97;5072272;28;20216;-77
2023/04/24 05:02:40;;;;;;;2.10;1.90;;;;;;;9.49;100.00;97851.22;5063175;28;20196;-77
2023/04/24 05:05:09;;;;;;;4.67;2.10;;;;;;;9.42;100.00;97849.06;5066000;28;20220;-77
2023/04/24 05:07:38;;;;;;;2.60;2.10;;;;;;;9.45;100.00;97847.94;5068173;28;20197;-77
2023/04/24 05:10:09;;;;;;;2.30;2.10;;;;;;;9.41;100.00;97847.38;5071232;28;20185;-77
2023/04/24 05:12:37;;;;;;;2.40;2.20;;;;;;;9.40;100.00;97860.72;5065153;28;20208;-78
2023/04/24 05:15:06;;;;;;;12.57;7.13;;;;;;;9.33;100.00;97865.63;5075073;28;20207;-78
2023/04/24 05:17:35;;;;;;;3.67;2.43;;;;;;;9.33;100.00;97854.22;5065799;28;20207;-77
2023/04/24 05:20:05;;;;;;;4.57;2.53;;;;;;;9.17;100.00;97852.81;5071341;28;20220;-76
2023/04/24 05:22:33;;;;;;;2.73;1.90;;;;;;;9.20;100.00;97858.81;5075560;28;20271;-77
2023/04/24 05:25:02;;;;;;;2.27;2.07;;;;;;;9.24;100.00;97857.59;5068702;28;20196;-77
2023/04/24 05:27:31;;;;;;;2.50;2.27;;;;;;;9.21;100.00;97860.50;5075605;28;20252;-77
2023/04/24 05:30:01;;;;;;;2.63;2.10;;;;;;;9.25;100.00;97867.22;5078941;28;20218;-78
2023/04/24 05:32:29;;;;;;;2.57;2.30;;;;;;;9.28;100.00;97866.97;5067443;28;20760;-78
2023/04/24 05:34:57;;;;;;;4.60;2.23;;;;;;;9.28;100.00;97864.34;5069861;28;20243;-78
2023/04/24 05:37:26;;;;;;;4.40;2.33;;;;;;;9.24;100.00;97862.88;5071043;28;20200;-77
2023/04/24 05:39:54;;;;;;;2.80;2.07;;;;;;;9.22;100.00;97863.00;5071091;28;20204;-78
2023/04/24 05:42:22;;;;;;;2.80;1.97;;;;;;;9.35;100.00;97870.78;5072343;28;20192;-78
2023/04/24 05:44:53;;;;;;;2.33;2.03;;;;;;;9.29;100.00;97880.06;5069687;28;20216;-78
2023/04/24 05:47:26;;;;;;;2.73;2.23;;;;;;;9.30;100.00;97881.75;5075185;28;20199;-78
2023/04/24 05:49:54;;;;;;;2.63;2.00;;;;;;;9.53;100.00;97879.91;5070770;28;20204;-78
2023/04/24 05:52:22;;;;;;;3.43;2.00;;;;;;;9.48;100.00;97881.25;5067661;28;20714;-78
2023/04/24 05:54:50;;;;;;;3.93;2.60;;;;;;;9.44;100.00;97897.31;5070625;28;20196;-78
2023/04/24 05:57:19;;;;;;;3.40;2.20;;;;;;;9.54;100.00;97888.66;5075026;28;20197;-78
2023/04/24 05:59:47;;;;;;;2.70;2.00;;;;;;;9.58;100.00;97890.97;5074816;28;20184;-78
2023/04/24 06:02:17;;;;;;;2.97;2.40;;;;;;;9.72;100.00;97903.88;5066432;28;20224;-78
2023/04/24 06:04:46;;;;;;;2.83;2.50;;;;;;;9.77;100.00;97892.13;5013007;28;20309;-78
2023/04/24 06:07:14;;;;;;;4.57;2.50;;;;;;;9.54;100.00;97896.59;5012793;28;20198;-78
2023/04/24 06:09:44;;;;;;;2.50;2.30;;;;;;;9.59;100.00;97897.09;5008111;28;20205;-78
2023/04/24 06:12:12;;;;;;;3.93;2.37;;;;;;;9.61;100.00;97906.56;5012827;28;20198;-78
2023/04/24 06:14:40;;;;;;;2.20;2.00;;;;;;;9.92;100.00;97901.44;5004334;28;20202;-78
2023/04/24 06:17:08;;;;;;;3.13;2.30;;;;;;;9.79;100.00;97917.47;5011672;28;20203;-78
2023/04/24 06:19:38;;;;;;;2.33;2.10;;;;;;;9.87;100.00;97896.53;5011577;28;20198;-78
2023/04/24 06:22:06;;;;;;;3.20;2.30;;;;;;;9.70;100.00;97921.69;5021087;28;20224;-78
2023/04/24 06:24:37;;;;;;;3.37;2.20;;;;;;;9.73;100.00;97913.50;5070513;28;20729;-77
2023/04/24 06:27:05;;;;;;;4.17;2.60;;;;;;;9.78;100.00;97920.22;5039552;28;20188;-77
2023/04/24 06:29:34;;;;;;;4.40;2.70;;;;;;;9.65;100.00;97925.66;5067188;28;20501;-78
2023/04/24 06:32:02;;;;;;;3.43;2.53;;;;;;;9.70;100.00;97923.50;5073908;28;20219;-77
2023/04/24 06:34:32;;;;;;;3.47;3.00;;;;;;;9.63;100.00;97917.00;5066812;28;20695;-78
2023/04/24 06:37:02;;;;;;;4.60;3.10;;;;;;;9.70;100.00;97926.13;5068612;28;20204;-78
2023/04/24 06:39:30;;;;;;;4.73;3.10;;;;;;;9.68;100.00;97930.72;5072707;28;20203;-78
2023/04/24 06:41:58;;;;;;;4.93;3.03;;;;;;;9.87;100.00;97930.06;5070519;28;20250;-78
2023/04/24 06:44:27;;;;;;;4.07;2.97;;;;;;;10.02;100.00;97934.09;5069315;28;20192;-77
2023/04/24 06:46:55;;;;;;;5.57;3.00;;;;;;;9.87;100.00;97930.91;5066407;28;20200;-78
2023/04/24 06:49:23;;;;;;;3.33;3.03;;;;;;;9.83;100.00;97931.25;5071006;28;20192;-77
2023/04/24 06:51:51;;;;;;;3.97;3.50;;;;;;;9.87;100.00;97940.66;5073624;28;20655;-78
2023/04/24 06:54:20;;;;;;;3.30;2.80;;;;;;;10.00;100.00;97943.97;5072239;28;20196;-77
2023/04/24 06:56:50;;;;;;;3.83;3.20;;;;;;;10.02;100.00;97934.94;5068914;28;20204;-77
2023/04/24 06:59:18;;;;;;;4.77;3.50;;;;;;;10.03;100.00;97930.50;5070042;28;20250;-78
2023/04/24 07:01:46;;;;;;;4.67;3.70;;;;;;;9.93;100.00;97930.41;5069867;28;20246;-77
2023/04/24 07:04:15;;;;;;;3.60;3.30;;;;;;;10.06;100.00;97932.91;5066078;28;20375;-77
2023/04/24 07:06:44;;;;;;;4.00;3.60;;;;;;;9.82;100.00;97934.88;5073293;28;20192;-77
2023/04/24 07:09:13;;;;;;;5.53;3.63;;;;;;;9.93;100.00;97929.56;5066558;28;20226;-77
2023/04/24 07:11:44;;;;;;;4.70;3.60;;;;;;;9.85;100.00;97929.38;5070535;28;20234;-77
2023/04/24 07:14:12;;;;;;;4.17;3.57;;;;;;;9.84;100.00;97932.94;5070108;28;20200;-77
2023/04/24 07:16:41;;;;;;;3.87;3.30;;;;;;;9.86;100.00;97923.94;5067808;28;20234;-78
2023/04/24 07:19:09;;;;;;;6.43;3.90;;;;;;;9.85;100.00;97924.91;5073153;28;20200;-77
2023/04/24 07:21:37;;;;;;;4.33;3.93;;;;;;;9.85;100.00;97927.56;5072830;28;20266;-77
2023/04/24 07:24:09;;;;;;;4.40;4.00;;;;;;;9.88;100.00;97921.16;5067664;28;20204;-77
2023/04/24 07:26:38;;;;;;;4.40;3.90;;;;;;;10.19;100.00;97930.09;5070239;28;20238;-78
2023/04/24 07:29:08;;;;;;;7.10;3.80;;;;;;;10.34;100.00;97920.94;5069008;28;20705;-78
2023/04/24 07:31:37;;;;;;;4.93;3.73;;;;;;;10.40;100.00;97923.03;5068758;28;20200;-78
2023/04/24 07:34:05;;;;;;;5.23;4.00;;;;;;;10.48;100.00;97925.06;5072930;28;20203;-78
2023/04/24 07:36:33;;;;;;;6.33;4.47;;;;;;;10.56;100.00;97930.56;5072403;28;20216;-77
2023/04/24 07:39:01;;;;;;;6.30;4.20;;;;;;;10.31;100.00;97923.81;5066834;28;20204;-77
2023/04/24 07:41:30;;;;;;;4.80;4.30;;;;;;;10.48;100.00;97910.00;5070174;28;20216;-78
2023/04/24 07:43:59;;;;;;;4.90;4.50;;;;;;;10.62;100.00;97916.81;5068917;28;20200;-78
2023/04/24 07:46:30;;;;;;;5.13;4.03;;;;;;;10.77;100.00;97920.81;5067919;28;20193;-78
2023/04/24 07:49:01;;;;;;;6.13;4.10;;;;;;;10.64;100.00;97909.56;5065868;28;20196;-77
2023/04/24 07:51:41;;;;;;;5.20;3.93;;;;;;;10.55;100.00;97907.69;5067611;28;20234;-78
2023/04/24 07:54:10;;;;;;;4.87;3.80;;;;;;;10.92;100.00;97917.84;5054262;28;20192;-77
2023/04/24 07:56:39;;;;;;;4.10;3.60;;;;;;;11.02;100.00;97913.44;5071958;28;20279;-77
2023/04/24 07:59:07;;;;;;;4.03;3.63;;;;;;;11.01;100.00;97932.94;5070252;28;20188;-78
2023/04/24 08:01:37;;;;;;;4.03;3.60;;;;;;;10.78;100.00;97925.13;5068768;28;20208;-77
2023/04/24 08:04:05;;;;;;;5.00;3.10;;;;;;;10.81;100.00;97934.66;5068761;28;20323;-77
2023/04/24 08:06:34;;;;;;;6.20;3.30;;;;;;;10.76;100.00;97931.53;5069799;28;20208;-77
2023/04/24 08:09:03;;;;;;;3.60;3.03;;;;;;;10.95;100.00;97915.75;5060695;28;20219;-77
2023/04/24 08:11:31;;;;;;;3.00;2.70;;;;;;;11.30;100.00;97925.13;5067526;28;20188;-78
2023/04/24 08:13:59;;;;;;;3.30;2.97;;;;;;;11.23;100.00;97935.41;5069963;28;20203;-78
2023/04/24 08:16:28;;;;;;;4.87;3.43;;;;;;;11.07;100.00;97925.28;5073037;28;20192;-78
2023/04/24 08:18:58;;;;;;;5.07;3.07;;;;;;;11.26;100.00;97936.97;5067075;28;20188;-78
2023/04/24 08:21:26;;;;;;;5.00;3.07;;;;;;;11.14;100.00;97938.88;5068230;28;20254;-78
2023/04/24 08:23:55;;;;;;;3.83;3.10;;;;;;;11.23;100.00;97940.72;5066505;28;20215;-77
2023/04/24 08:26:23;;;;;;;5.03;3.30;;;;;;;11.40;100.00;97939.28;5065825;28;20202;-77
2023/04/24 08:28:51;;;;;;;3.57;3.00;;;;;;;11.45;100.00;97934.38;5069095;28;20231;-78
2023/04/24 08:31:20;;;;;;;3.57;2.90;;;;;;;11.25;100.00;97945.88;5069857;28;20193;-78
2023/04/24 08:33:51;;;;;;;3.83;2.83;;;;;;;11.15;100.00;97944.03;5067877;28;20203;-77
2023/04/24 08:36:21;;;;;;;3.37;2.73;;;;;;;11.30;100.00;97949.84;5037675;28;20283;-78
2023/04/24 08:38:53;;;;;;;3.20;2.90;;;;;;;11.22;100.00;97943.50;5068533;28;20253;-77
2023/04/24 08:41:25;;;;;;;3.10;2.80;;;;;;;11.24;100.00;97960.13;5069630;28;20302;-78
2023/04/24 08:43:54;;;;;;;5.13;2.63;;;;;;;11.34;100.00;97945.94;5065937;28;20215;-78
2023/04/24 08:46:23;;;;;;;3.10;2.80;;;;;;;11.35;100.00;97957.38;5070137;28;20612;-77
2023/04/24 08:48:53;;;;;;;3.27;2.70;;;;;;;11.29;100.00;97966.72;5065572;28;20210;-77
2023/04/24 08:51:27;;;;;;;2.97;2.60;;;;;;;11.24;100.00;97962.75;5077022;28;20606;-79
2023/04/24 08:53:55;;;;;;;3.77;2.60;;;;;;;11.07;100.00;97966.84;5066018;28;20196;-78
2023/04/24 08:56:24;;;;;;;3.50;2.40;;;;;;;11.07;100.00;97970.34;5072457;28;20250;-79
2023/04/24 08:58:54;;;;;;;3.70;2.60;;;;;;;11.24;100.00;97982.16;5071481;28;20200;-79
2023/04/24 09:01:26;;;;;;;2.57;2.20;;;;;;;11.34;100.00;97968.94;5074094;28;20208;-78
2023/04/24 09:03:57;;;;;;;4.20;2.70;;;;;;;11.11;100.00;97973.59;5067033;28;20239;-77
2023/04/24 09:06:27;;;;;;;2.40;2.20;;;;;;;11.15;100.00;97985.59;5071528;28;20230;-79
2023/04/24 09:08:57;;;;;;;2.67;2.20;;;;;;;10.96;100.00;97983.66;5069920;28;20288;-79
2023/04/24 09:11:26;;;;;;;3.10;2.10;;;;;;;10.95;100.00;97979.34;5075996;28;20280;-77
2023/04/24 09:13:55;;;;;;;2.77;2.10;;;;;;;11.02;100.00;97984.97;5069591;28;20196;-80
2023/04/24 09:16:24;;;;;;;4.37;2.97;;;;;;;10.87;100.00;97984.44;5071571;28;20208;-79
2023/04/24 09:18:53;;;;;;;2.97;2.50;;;;;;;11.07;100.00;97982.75;5069119;28;20225;-79
2023/04/24 09:21:23;;;;;;;4.40;4.00;;;;;;;11.15;100.00;97975.00;5068447;28;20204;-77
2023/04/24 09:24:02;;;;;;;4.23;2.70;;;;;;;11.15;100.00;97986.44;5070565;28;20216;-77
2023/04/24 09:26:33;;;;;;;2.50;2.30;;;;;;;11.04;100.00;97986.50;5075208;28;20196;-79
2023/04/24 09:29:01;;;;;;;2.43;2.03;;;;;;;11.14;100.00;97982.09;5069097;28;20204;-79
2023/04/24 09:31:30;;;;;;;5.40;2.50;;;;;;;11.19;100.00;97981.69;5079485;28;20192;-79
2023/04/24 09:34:00;;;;;;;2.80;2.33;;;;;;;11.21;100.00;97987.72;5077235;28;20275;-79
2023/04/24 09:36:33;;;;;;;2.37;1.93;;;;;;;11.22;100.00;97986.75;5075209;28;20216;-78
2023/04/24 09:39:04;;;;;;;1.90;1.70;;;;;;;11.24;100.00;97991.91;5067733;28;20208;-79
2023/04/24 09:41:33;;;;;;;2.50;1.87;;;;;;;11.37;100.00;97990.72;5073504;28;20208;-79
2023/04/24 09:44:13;;;;;;;1.83;1.70;;;;;;;11.25;100.00;97988.28;5072436;28;20227;-79
2023/04/24 09:46:42;;;;;;;3.23;1.83;;;;;;;11.35;100.00;97994.47;5070182;28;20192;-79
2023/04/24 09:49:13;;;;;;;1.93;1.57;;;;;;;11.39;100.00;97991.47;5075959;28;20199;-78
2023/04/24 09:51:41;;;;;;;2.10;1.80;;;;;;;11.35;100.00;97994.47;5073437;28;20203;-79
2023/04/24 09:54:17;;;;;;;2.23;1.60;;;;;;;11.52;100.00;97996.53;5071392;28;20195;-78
2023/04/24 09:56:46;;;;;;;2.57;1.77;;;;;;;11.41;100.00;98007.22;5011896;28;20213;-78
2023/04/24 09:59:15;;;;;;;2.47;2.13;;;;;;;11.33;100.00;98007.03;5013181;28;20206;-79
2023/04/24 10:01:44;;;;;;;2.63;2.30;;;;;;;11.32;100.00;98016.81;5012678;28;20233;-79
2023/04/24 10:04:20;;;;;;;2.37;1.90;;;;;;;11.14;100.00;98018.38;5017627;28;20226;-78
2023/04/24 10:06:50;;;;;;;2.97;1.50;;;;;;;10.94;100.00;98017.38;5013169;28;20202;-79
2023/04/24 10:09:21;;;;;;;1.70;1.53;;;;;;;10.83;100.00;98036.00;5009693;28;20210;-79
2023/04/24 10:11:50;;;;;;;2.17;1.63;;;;;;;10.72;100.00;98039.53;5011363;28;20198;-77
2023/04/24 10:14:20;;;;;;;1.90;1.70;;;;;;;10.49;100.00;98014.94;5027075;28;20201;-80
2023/04/24 10:16:49;;;;;;;2.00;1.70;;;;;;;10.57;100.00;98048.72;5069546;28;20196;-78
2023/04/24 10:19:19;;;;;;;3.70;2.57;;;;;;;10.55;100.00;98061.25;5070648;28;20789;-79
2023/04/24 10:21:50;;;;;;;3.00;1.97;;;;;;;10.40;100.00;98081.84;5073047;28;20736;-78
2023/04/24 10:24:21;;;;;;;2.60;1.90;;;;;;;10.45;100.00;98077.03;5071035;28;20223;-78
2023/04/24 10:26:49;;;;;;;2.40;1.83;;;;;;;10.12;100.00;98082.34;5070699;28;20199;-79
2023/04/24 10:29:21;;;;;;;1.73;1.43;;;;;;;10.26;100.00;98098.84;5066892;28;20242;-76
2023/04/24 10:31:49;;;;;;;2.30;1.73;;;;;;;10.04;100.00;98086.47;5075042;28;20204;-78
2023/04/24 10:34:22;;;;;;;1.83;1.40;;;;;;;10.14;100.00;98106.91;5071797;28;20197;-78
2023/04/24 10:36:53;;;;;;;1.20;1.10;;;;;;;10.11;100.00;98107.97;5073770;28;20350;-78
2023/04/24 10:39:26;;;;;;;1.20;1.10;;;;;;;10.21;100.00;98094.84;5071599;28;20264;-76
2023/04/24 10:41:57;;;;;;;3.30;1.50;;;;;;;10.15;100.00;98104.13;5071536;28;20200;-79
2023/04/24 10:44:26;;;;;;;1.13;0.87;;;;;;;10.40;100.00;98092.44;5070212;28;20212;-79
2023/04/24 10:46:56;;;;;;;1.20;1.10;;;;;;;10.67;100.00;98099.13;5074490;28;20208;-80
2023/04/24 10:49:30;;;;;;;1.73;0.80;;;;;;;10.85;100.00;98111.72;5070901;28;20678;-78
2023/04/24 10:52:03;;;;;;;1.70;0.90;;;;;;;10.99;100.00;98099.97;5068866;28;20200;-76
2023/04/24 10:54:36;;;;;;;0.90;0.83;;;;;;;11.27;100.00;98097.66;5066311;28;20193;-77
2023/04/24 10:57:32;;;;;;;0.90;0.80;;;;;;;11.71;100.00;98102.72;5066842;28;20200;-79
2023/04/24 11:00:21;;;;;;;1.27;0.80;;;;;;;11.69;100.00;98101.16;5065548;28;20196;-78
2023/04/24 11:02:52;;;;;;;0.60;0.60;;;;;;;11.64;100.00;98104.19;5070874;28;20638;-79
2023/04/24 11:05:21;;;;;;;0.80;0.60;;;;;;;11.65;100.00;98102.38;5071104;28;20270;-79
2023/04/24 11:08:13;;;;;;;1.27;0.53;;;;;;;11.53;100.00;98109.56;5067763;28;20204;-79
2023/04/24 11:10:45;;;;;;;1.17;0.60;;;;;;;11.62;100.00;98124.72;5069896;28;20230;-79
2023/04/24 11:13:16;;;;;;;2.47;2.27;;;;;;;11.36;100.00;98096.91;5074559;28;20196;-79
2023/04/24 11:15:44;;;;;;;2.43;1.67;;;;;;;11.23;100.00;98110.34;5073790;28;20197;-78
2023/04/24 11:18:16;;;;;;;0.97;0.93;;;;;;;10.97;100.00;98127.56;5063041;28;20207;-79
2023/04/24 11:20:44;;;;;;;1.13;0.60;;;;;;;11.05;100.00;98133.06;5070450;28;20192;-79
2023/04/24 11:23:14;;;;;;;0.83;0.60;;;;;;;10.88;100.00;98147.69;5071761;28;20224;-79
2023/04/24 11:25:44;;;;;;;0.77;0.50;;;;;;;10.82;100.00;98140.25;5063609;28;20204;-79
2023/04/24 11:28:17;;;;;;;0.70;0.50;;;;;;;11.03;100.00;98135.00;5073149;28;20196;-78
2023/04/24 11:30:45;;;;;;;0.67;0.40;;;;;;;11.09;100.00;98145.09;5067573;28;20264;-78
2023/04/24 11:33:21;;;;;;;0.50;0.50;;;;;;;11.09;100.00;98156.53;5065436;28;20192;-78
2023/04/24 11:35:52;;;;;;;0.40;0.40;;;;;;;11.41;100.00;98151.22;5072855;28;20257;-79
2023/04/24 11:38:20;;;;;;;0.67;0.63;;;;;;;11.36;100.00;98150.75;5071768;28;20188;-77